Terminal Aerodrome Forecast
Issued by NWS Blacksburg, VA

Current Version | Previous Version | Graphics & Text | Print | Product List | Glossary On
Versions: 1 2 3 4 5 6 7 8 9 10 11 12 13 14 15 16 17 18 19 20 21 22 23
000
FTUS41 KRNK 161226 AAA
TAFBLF
TAF AMD
KBLF 161226Z 1612/1712 31005KT P6SM OVC024
     FM161400 32009G16KT P6SM BKN035
     FM170000 34005KT P6SM FEW050
     FM170400 VRB03KT P6SM SKC=

USA.gov is the U.S. government's official web portal to all federal, state and local government web resources and services.